Country Club Hills, Missouri
Current Conditions -  °F | °C
As of 4:51 PM on Thursday 18 Dec 2014 (Local Time) from KSTL Reporting Station
Overcast Overcast  
Wind Chill: 32°   Ceiling: 2000
Heat Index: 36°   Visibility: 7mi
Dew Point: 27°   Wind: 5mph
Humidity: 70%   Direction: 90°E
Pressure: 30.24"   Gusts: NA
Location:  38.7423°N, 90.2608°W
Report Text: KSTL 182251Z 09004KT 7SM BKN020 OVC035 02/M03 A3024 RMK AO2 SLP249 T00221028
Loading
Personal Weather Stations






























Interactive Weather Map New forecast layout! Learn more

10-Day Weather Forecast

Advertisements
Track Severe Weather on mobile